Terminal Aerodrome Forecast
Issued by NWS North Platte, NE

Home | Current Version | Previous Version | Text Only | Print | Product List | Glossary On
Versions: 1 2 3 4 5 6 7 8 9 10 11 12 13 14
000
FTUS43 KLBF 221700
TAFLBF
TAF
KLBF 221722Z 2218/2318 03010KT P6SM SCT070 BKN100
     FM222200 09009KT 3SM -TSRA BR OVC050CB
      TEMPO 2300/2303 VRB35KT 1SM +TSRAGR OVC030CB
     FM230800 VRB06KT 4SM BR OVC020
     FM231500 VRB06KT P6SM BKN050=

USA.gov is the U.S. government's official web portal to all federal, state and local government web resources and services.